sensor_id;sensor_type;location;lat;lon;timestamp;temperature;humidity
10864;DHT22;5485;37.558;126.950;2023-03-23T00:01:15;16.30;1.00
10864;DHT22;5485;37.558;126.950;2023-03-23T00:03:50;16.40;1.00
10864;DHT22;5485;37.558;126.950;2023-03-23T00:06:21;16.60;1.00
10864;DHT22;5485;37.558;126.950;2023-03-23T00:08:50;16.50;1.00
10864;DHT22;5485;37.558;126.950;2023-03-23T00:11:23;16.50;1.00
10864;DHT22;5485;37.558;126.950;2023-03-23T00:13:53;16.50;1.00
10864;DHT22;5485;37.558;126.950;2023-03-23T00:16:21;16.60;1.00
10864;DHT22;5485;37.558;126.950;2023-03-23T00:18:59;16.70;1.00
10864;DHT22;5485;37.558;126.950;2023-03-23T00:21:29;16.90;1.00
10864;DHT22;5485;37.558;126.950;2023-03-23T00:24:15;16.90;1.00
10864;DHT22;5485;37.558;126.950;2023-03-23T00:26:46;16.90;1.00
10864;DHT22;5485;37.558;126.950;2023-03-23T00:29:20;17.00;1.00
10864;DHT22;5485;37.558;126.950;2023-03-23T00:31:48;17.00;1.00
10864;DHT22;5485;37.558;126.950;2023-03-23T00:34:18;17.20;1.00
10864;DHT22;5485;37.558;126.950;2023-03-23T00:36:53;17.20;1.00
10864;DHT22;5485;37.558;126.950;2023-03-23T00:39:24;17.30;1.00
10864;DHT22;5485;37.558;126.950;2023-03-23T00:41:53;17.50;1.00
10864;DHT22;5485;37.558;126.950;2023-03-23T00:44:27;17.50;1.00
10864;DHT22;5485;37.558;126.950;2023-03-23T00:46:56;17.50;1.00
10864;DHT22;5485;37.558;126.950;2023-03-23T00:49:25;17.60;1.00
10864;DHT22;5485;37.558;126.950;2023-03-23T00:51:54;17.70;1.00
10864;DHT22;5485;37.558;126.950;2023-03-23T00:54:24;17.60;1.00
10864;DHT22;5485;37.558;126.950;2023-03-23T00:56:51;17.80;1.00
10864;DHT22;5485;37.558;126.950;2023-03-23T00:59:21;17.70;1.00
10864;DHT22;5485;37.558;126.950;2023-03-23T01:01:52;17.60;1.00
10864;DHT22;5485;37.558;126.950;2023-03-23T01:04:18;17.70;1.00
10864;DHT22;5485;37.558;126.950;2023-03-23T01:06:49;17.70;1.00
10864;DHT22;5485;37.558;126.950;2023-03-23T01:09:20;17.80;1.00
10864;DHT22;5485;37.558;126.950;2023-03-23T01:11:54;18.00;1.00
10864;DHT22;5485;37.558;126.950;2023-03-23T01:14:22;18.20;1.00
10864;DHT22;5485;37.558;126.950;2023-03-23T01:16:49;18.40;1.00
10864;DHT22;5485;37.558;126.950;2023-03-23T01:19:15;18.50;1.00
10864;DHT22;5485;37.558;126.950;2023-03-23T01:21:42;18.40;1.00
10864;DHT22;5485;37.558;126.950;2023-03-23T01:24:09;18.30;1.00
10864;DHT22;5485;37.558;126.950;2023-03-23T01:26:36;18.40;1.00
10864;DHT22;5485;37.558;126.950;2023-03-23T01:29:03;18.30;1.00
10864;DHT22;5485;37.558;126.950;2023-03-23T01:31:30;18.20;1.00
10864;DHT22;5485;37.558;126.950;2023-03-23T01:33:57;18.50;1.00
10864;DHT22;5485;37.558;126.950;2023-03-23T01:36:27;18.70;1.00
10864;DHT22;5485;37.558;126.950;2023-03-23T01:39:00;18.80;1.00
10864;DHT22;5485;37.558;126.950;2023-03-23T01:41:29;19.20;1.00
10864;DHT22;5485;37.558;126.950;2023-03-23T01:44:01;19.40;1.00
10864;DHT22;5485;37.558;126.950;2023-03-23T01:46:32;19.50;1.00
10864;DHT22;5485;37.558;126.950;2023-03-23T01:49:12;19.30;1.00
10864;DHT22;5485;37.558;126.950;2023-03-23T01:51:47;19.40;1.00
10864;DHT22;5485;37.558;126.950;2023-03-23T01:54:16;19.30;1.00
10864;DHT22;5485;37.558;126.950;2023-03-23T01:56:54;19.30;1.00
10864;DHT22;5485;37.558;126.950;2023-03-23T01:59:23;19.50;1.00
10864;DHT22;5485;37.558;126.950;2023-03-23T02:01:53;19.70;1.00
10864;DHT22;5485;37.558;126.950;2023-03-23T02:04:21;19.80;1.00
10864;DHT22;5485;37.558;126.950;2023-03-23T02:06:50;19.80;1.00
10864;DHT22;5485;37.558;126.950;2023-03-23T02:09:18;19.60;1.00
10864;DHT22;5485;37.558;126.950;2023-03-23T02:11:46;19.40;1.00
10864;DHT22;5485;37.558;126.950;2023-03-23T02:14:14;19.50;1.00
10864;DHT22;5485;37.558;126.950;2023-03-23T02:16:45;19.80;1.00
10864;DHT22;5485;37.558;126.950;2023-03-23T02:25:25;20.10;1.00
10864;DHT22;5485;37.558;126.950;2023-03-23T02:33:29;20.20;1.00
10864;DHT22;5485;37.558;126.950;2023-03-23T02:39:09;20.30;1.00
10864;DHT22;5485;37.558;126.950;2023-03-23T02:42:06;20.20;1.00
10864;DHT22;5485;37.558;126.950;2023-03-23T02:44:36;20.00;1.00
10864;DHT22;5485;37.558;126.950;2023-03-23T02:47:07;20.10;1.00
10864;DHT22;5485;37.558;126.950;2023-03-23T02:49:37;20.20;1.00
10864;DHT22;5485;37.558;126.950;2023-03-23T02:52:10;20.30;1.00
10864;DHT22;5485;37.558;126.950;2023-03-23T02:54:42;20.40;1.00
10864;DHT22;5485;37.558;126.950;2023-03-23T02:57:11;20.50;1.00
10864;DHT22;5485;37.558;126.950;2023-03-23T02:59:38;20.70;1.00
10864;DHT22;5485;37.558;126.950;2023-03-23T03:02:17;21.00;1.00
10864;DHT22;5485;37.558;126.950;2023-03-23T03:05:15;21.20;1.00
10864;DHT22;5485;37.558;126.950;2023-03-23T03:08:18;21.10;1.00
10864;DHT22;5485;37.558;126.950;2023-03-23T03:11:18;21.10;1.00
10864;DHT22;5485;37.558;126.950;2023-03-23T03:14:04;21.00;1.00
10864;DHT22;5485;37.558;126.950;2023-03-23T03:19:36;20.30;1.00
10864;DHT22;5485;37.558;126.950;2023-03-23T03:22:07;20.30;1.00
10864;DHT22;5485;37.558;126.950;2023-03-23T03:24:36;20.40;1.00
10864;DHT22;5485;37.558;126.950;2023-03-23T03:27:05;20.40;1.00
10864;DHT22;5485;37.558;126.950;2023-03-23T03:29:39;20.70;1.00
10864;DHT22;5485;37.558;126.950;2023-03-23T03:32:14;21.10;1.00
10864;DHT22;5485;37.558;126.950;2023-03-23T03:34:41;21.10;1.00
10864;DHT22;5485;37.558;126.950;2023-03-23T03:37:09;21.00;1.00
10864;DHT22;5485;37.558;126.950;2023-03-23T03:39:38;20.90;1.00
10864;DHT22;5485;37.558;126.950;2023-03-23T03:42:06;20.70;1.00
10864;DHT22;5485;37.558;126.950;2023-03-23T03:44:34;20.80;1.00
10864;DHT22;5485;37.558;126.950;2023-03-23T03:47:01;20.80;1.00
10864;DHT22;5485;37.558;126.950;2023-03-23T03:49:28;20.90;1.00
10864;DHT22;5485;37.558;126.950;2023-03-23T03:51:55;20.80;1.00
10864;DHT22;5485;37.558;126.950;2023-03-23T03:54:24;20.60;1.00
10864;DHT22;5485;37.558;126.950;2023-03-23T03:56:51;20.70;1.00
10864;DHT22;5485;37.558;126.950;2023-03-23T03:59:24;20.80;1.00
10864;DHT22;5485;37.558;126.950;2023-03-23T04:01:52;21.20;1.00
10864;DHT22;5485;37.558;126.950;2023-03-23T04:04:21;21.40;1.00
10864;DHT22;5485;37.558;126.950;2023-03-23T04:06:51;21.30;1.00
10864;DHT22;5485;37.558;126.950;2023-03-23T04:09:18;21.40;1.00
10864;DHT22;5485;37.558;126.950;2023-03-23T04:11:45;21.70;1.00
10864;DHT22;5485;37.558;126.950;2023-03-23T04:14:12;21.90;1.00
10864;DHT22;5485;37.558;126.950;2023-03-23T04:16:48;21.90;1.00
10864;DHT22;5485;37.558;126.950;2023-03-23T04:19:18;22.00;1.00
10864;DHT22;5485;37.558;126.950;2023-03-23T04:21:45;21.90;1.00
10864;DHT22;5485;37.558;126.950;2023-03-23T04:24:15;21.50;1.00
10864;DHT22;5485;37.558;126.950;2023-03-23T04:26:42;21.70;1.00
10864;DHT22;5485;37.558;126.950;2023-03-23T04:29:10;22.00;1.00
10864;DHT22;5485;37.558;126.950;2023-03-23T04:31:41;22.40;1.00
10864;DHT22;5485;37.558;126.950;2023-03-23T04:34:11;22.60;1.00
10864;DHT22;5485;37.558;126.950;2023-03-23T04:36:41;22.80;1.00
10864;DHT22;5485;37.558;126.950;2023-03-23T04:39:09;22.60;1.00
10864;DHT22;5485;37.558;126.950;2023-03-23T04:41:40;22.30;1.00
10864;DHT22;5485;37.558;126.950;2023-03-23T04:44:07;22.40;1.00
10864;DHT22;5485;37.558;126.950;2023-03-23T04:46:34;22.40;1.00
10864;DHT22;5485;37.558;126.950;2023-03-23T04:49:01;22.30;1.00
10864;DHT22;5485;37.558;126.950;2023-03-23T04:51:31;22.20;1.00
10864;DHT22;5485;37.558;126.950;2023-03-23T04:53:58;22.30;1.00
10864;DHT22;5485;37.558;126.950;2023-03-23T04:56:25;22.30;1.00
10864;DHT22;5485;37.558;126.950;2023-03-23T04:58:51;22.50;1.00
10864;DHT22;5485;37.558;126.950;2023-03-23T05:01:18;22.30;1.00
10864;DHT22;5485;37.558;126.950;2023-03-23T05:03:45;22.50;1.00
10864;DHT22;5485;37.558;126.950;2023-03-23T05:06:12;22.30;1.00
10864;DHT22;5485;37.558;126.950;2023-03-23T05:08:39;22.30;1.00
10864;DHT22;5485;37.558;126.950;2023-03-23T05:11:07;22.30;1.00
10864;DHT22;5485;37.558;126.950;2023-03-23T05:13:34;22.20;1.00
10864;DHT22;5485;37.558;126.950;2023-03-23T05:16:08;22.10;1.00
10864;DHT22;5485;37.558;126.950;2023-03-23T05:18:35;22.30;1.00
10864;DHT22;5485;37.558;126.950;2023-03-23T05:21:03;22.40;1.00
10864;DHT22;5485;37.558;126.950;2023-03-23T05:23:32;22.60;1.00
10864;DHT22;5485;37.558;126.950;2023-03-23T05:25:59;22.40;1.00
10864;DHT22;5485;37.558;126.950;2023-03-23T05:28:27;22.40;1.00
10864;DHT22;5485;37.558;126.950;2023-03-23T05:30:54;22.30;1.00
10864;DHT22;5485;37.558;126.950;2023-03-23T05:33:22;22.20;1.00
10864;DHT22;5485;37.558;126.950;2023-03-23T05:35:49;22.30;1.00
10864;DHT22;5485;37.558;126.950;2023-03-23T05:38:16;22.10;1.00
10864;DHT22;5485;37.558;126.950;2023-03-23T05:40:44;22.30;1.00
10864;DHT22;5485;37.558;126.950;2023-03-23T05:43:11;22.50;1.00
10864;DHT22;5485;37.558;126.950;2023-03-23T05:45:38;22.60;1.00
10864;DHT22;5485;37.558;126.950;2023-03-23T05:48:05;22.40;1.00
10864;DHT22;5485;37.558;126.950;2023-03-23T05:50:32;22.30;1.00
10864;DHT22;5485;37.558;126.950;2023-03-23T05:52:59;22.30;1.00
10864;DHT22;5485;37.558;126.950;2023-03-23T05:55:29;22.20;1.00
10864;DHT22;5485;37.558;126.950;2023-03-23T05:57:56;22.40;1.00
10864;DHT22;5485;37.558;126.950;2023-03-23T06:00:23;22.50;1.00
10864;DHT22;5485;37.558;126.950;2023-03-23T06:02:53;22.50;1.00
10864;DHT22;5485;37.558;126.950;2023-03-23T06:05:20;22.60;1.00
10864;DHT22;5485;37.558;126.950;2023-03-23T06:07:48;22.80;1.00
10864;DHT22;5485;37.558;126.950;2023-03-23T06:10:15;22.80;1.00
10864;DHT22;5485;37.558;126.950;2023-03-23T06:12:42;22.60;1.00
10864;DHT22;5485;37.558;126.950;2023-03-23T06:15:10;22.70;1.00
10864;DHT22;5485;37.558;126.950;2023-03-23T06:17:38;22.60;1.00
10864;DHT22;5485;37.558;126.950;2023-03-23T06:20:06;22.70;1.00
10864;DHT22;5485;37.558;126.950;2023-03-23T06:22:39;22.60;1.00
10864;DHT22;5485;37.558;126.950;2023-03-23T06:25:11;22.60;1.00
10864;DHT22;5485;37.558;126.950;2023-03-23T06:27:38;22.60;1.00
10864;DHT22;5485;37.558;126.950;2023-03-23T06:30:08;22.80;1.00
10864;DHT22;5485;37.558;126.950;2023-03-23T06:32:36;22.80;1.00
10864;DHT22;5485;37.558;126.950;2023-03-23T06:35:04;22.80;1.00
10864;DHT22;5485;37.558;126.950;2023-03-23T06:37:32;22.80;1.00
10864;DHT22;5485;37.558;126.950;2023-03-23T06:39:59;23.00;1.00
10864;DHT22;5485;37.558;126.950;2023-03-23T06:42:26;22.80;1.00
10864;DHT22;5485;37.558;126.950;2023-03-23T06:44:54;22.50;1.00
10864;DHT22;5485;37.558;126.950;2023-03-23T06:47:23;22.50;1.00
10864;DHT22;5485;37.558;126.950;2023-03-23T06:49:50;22.50;1.00
10864;DHT22;5485;37.558;126.950;2023-03-23T06:52:17;22.40;1.00
10864;DHT22;5485;37.558;126.950;2023-03-23T06:54:44;22.40;1.00
10864;DHT22;5485;37.558;126.950;2023-03-23T06:57:11;22.50;1.00
10864;DHT22;5485;37.558;126.950;2023-03-23T06:59:38;22.40;1.00
10864;DHT22;5485;37.558;126.950;2023-03-23T07:02:05;22.50;1.00
10864;DHT22;5485;37.558;126.950;2023-03-23T07:04:32;22.50;1.00
10864;DHT22;5485;37.558;126.950;2023-03-23T07:06:59;22.60;1.00
10864;DHT22;5485;37.558;126.950;2023-03-23T07:09:26;22.60;1.00
10864;DHT22;5485;37.558;126.950;2023-03-23T07:11:56;22.30;1.00
10864;DHT22;5485;37.558;126.950;2023-03-23T07:14:23;22.20;1.00
10864;DHT22;5485;37.558;126.950;2023-03-23T07:16:50;22.30;1.00
10864;DHT22;5485;37.558;126.950;2023-03-23T07:19:17;22.30;1.00
10864;DHT22;5485;37.558;126.950;2023-03-23T07:21:45;22.20;1.00
10864;DHT22;5485;37.558;126.950;2023-03-23T07:24:12;22.20;1.00
10864;DHT22;5485;37.558;126.950;2023-03-23T07:26:43;22.10;1.00
10864;DHT22;5485;37.558;126.950;2023-03-23T07:29:10;22.00;1.00
10864;DHT22;5485;37.558;126.950;2023-03-23T07:31:37;22.00;1.00
10864;DHT22;5485;37.558;126.950;2023-03-23T07:34:04;21.70;1.00
10864;DHT22;5485;37.558;126.950;2023-03-23T07:36:32;21.60;1.00
10864;DHT22;5485;37.558;126.950;2023-03-23T07:39:04;21.30;1.00
10864;DHT22;5485;37.558;126.950;2023-03-23T07:41:32;21.40;1.00
10864;DHT22;5485;37.558;126.950;2023-03-23T07:43:59;21.40;1.00
10864;DHT22;5485;37.558;126.950;2023-03-23T07:46:28;21.50;1.00
10864;DHT22;5485;37.558;126.950;2023-03-23T07:48:56;21.60;1.00
10864;DHT22;5485;37.558;126.950;2023-03-23T07:51:23;21.60;1.00
10864;DHT22;5485;37.558;126.950;2023-03-23T07:53:51;21.50;1.00
10864;DHT22;5485;37.558;126.950;2023-03-23T07:56:18;21.50;1.00
10864;DHT22;5485;37.558;126.950;2023-03-23T07:58:46;21.50;1.00
10864;DHT22;5485;37.558;126.950;2023-03-23T08:01:13;21.50;1.00
10864;DHT22;5485;37.558;126.950;2023-03-23T08:03:40;21.50;1.00
10864;DHT22;5485;37.558;126.950;2023-03-23T08:06:07;21.50;1.00
10864;DHT22;5485;37.558;126.950;2023-03-23T08:08:35;21.40;1.00
10864;DHT22;5485;37.558;126.950;2023-03-23T08:11:03;21.40;1.00
10864;DHT22;5485;37.558;126.950;2023-03-23T08:13:30;21.30;1.00
10864;DHT22;5485;37.558;126.950;2023-03-23T08:15:59;21.30;1.00
10864;DHT22;5485;37.558;126.950;2023-03-23T08:18:30;21.20;1.00
10864;DHT22;5485;37.558;126.950;2023-03-23T08:21:00;21.20;1.00
10864;DHT22;5485;37.558;126.950;2023-03-23T08:23:27;21.20;1.00
10864;DHT22;5485;37.558;126.950;2023-03-23T08:25:54;21.10;1.00
10864;DHT22;5485;37.558;126.950;2023-03-23T08:28:22;21.00;1.00
10864;DHT22;5485;37.558;126.950;2023-03-23T08:30:49;20.90;1.00
10864;DHT22;5485;37.558;126.950;2023-03-23T08:33:17;20.80;1.00
10864;DHT22;5485;37.558;126.950;2023-03-23T08:35:44;20.70;1.00
10864;DHT22;5485;37.558;126.950;2023-03-23T08:38:11;20.60;1.00
10864;DHT22;5485;37.558;126.950;2023-03-23T08:40:39;20.60;1.00
10864;DHT22;5485;37.558;126.950;2023-03-23T08:43:06;20.50;1.00
10864;DHT22;5485;37.558;126.950;2023-03-23T08:45:33;20.40;1.00
10864;DHT22;5485;37.558;126.950;2023-03-23T08:48:00;20.30;1.00
10864;DHT22;5485;37.558;126.950;2023-03-23T08:50:28;20.30;1.00
10864;DHT22;5485;37.558;126.950;2023-03-23T08:52:59;20.20;1.00
10864;DHT22;5485;37.558;126.950;2023-03-23T08:55:28;20.20;1.00
10864;DHT22;5485;37.558;126.950;2023-03-23T08:57:55;20.10;1.00
10864;DHT22;5485;37.558;126.950;2023-03-23T09:00:23;20.10;1.00
10864;DHT22;5485;37.558;126.950;2023-03-23T09:02:53;20.00;1.00
10864;DHT22;5485;37.558;126.950;2023-03-23T09:05:25;20.00;1.00
10864;DHT22;5485;37.558;126.950;2023-03-23T09:07:55;19.90;1.00
10864;DHT22;5485;37.558;126.950;2023-03-23T09:10:27;19.80;1.00
10864;DHT22;5485;37.558;126.950;2023-03-23T09:12:54;19.80;1.00
10864;DHT22;5485;37.558;126.950;2023-03-23T09:15:23;19.70;1.00
10864;DHT22;5485;37.558;126.950;2023-03-23T09:17:53;19.60;1.00
10864;DHT22;5485;37.558;126.950;2023-03-23T09:20:24;19.50;1.00
10864;DHT22;5485;37.558;126.950;2023-03-23T09:22:53;19.50;1.00
10864;DHT22;5485;37.558;126.950;2023-03-23T09:25:22;19.40;1.00
10864;DHT22;5485;37.558;126.950;2023-03-23T09:27:52;19.30;1.00
10864;DHT22;5485;37.558;126.950;2023-03-23T09:30:24;19.30;1.00
10864;DHT22;5485;37.558;126.950;2023-03-23T09:32:53;19.20;1.00
10864;DHT22;5485;37.558;126.950;2023-03-23T09:35:21;19.10;1.00
10864;DHT22;5485;37.558;126.950;2023-03-23T09:37:49;19.00;1.00
10864;DHT22;5485;37.558;126.950;2023-03-23T09:40:25;19.00;1.00
10864;DHT22;5485;37.558;126.950;2023-03-23T09:48:56;18.70;1.00
10864;DHT22;5485;37.558;126.950;2023-03-23T09:56:54;18.50;1.00
10864;DHT22;5485;37.558;126.950;2023-03-23T09:59:41;18.40;1.00
10864;DHT22;5485;37.558;126.950;2023-03-23T10:02:18;18.30;1.00
10864;DHT22;5485;37.558;126.950;2023-03-23T10:04:48;18.10;1.00
10864;DHT22;5485;37.558;126.950;2023-03-23T10:07:23;18.00;1.00
10864;DHT22;5485;37.558;126.950;2023-03-23T10:09:56;17.80;1.00
10864;DHT22;5485;37.558;126.950;2023-03-23T10:15:25;17.60;1.00
10864;DHT22;5485;37.558;126.950;2023-03-23T10:18:04;17.50;1.00
10864;DHT22;5485;37.558;126.950;2023-03-23T10:20:57;17.50;1.00
10864;DHT22;5485;37.558;126.950;2023-03-23T10:32:00;17.30;1.00
10864;DHT22;5485;37.558;126.950;2023-03-23T10:34:53;17.20;1.00
10864;DHT22;5485;37.558;126.950;2023-03-23T10:37:44;17.30;1.00
10864;DHT22;5485;37.558;126.950;2023-03-23T10:40:21;17.20;1.00
10864;DHT22;5485;37.558;126.950;2023-03-23T10:42:50;17.20;1.00
10864;DHT22;5485;37.558;126.950;2023-03-23T10:45:30;17.10;1.00
10864;DHT22;5485;37.558;126.950;2023-03-23T10:48:25;17.00;1.00
10864;DHT22;5485;37.558;126.950;2023-03-23T10:50:57;16.90;1.00
10864;DHT22;5485;37.558;126.950;2023-03-23T10:53:43;16.80;1.00
10864;DHT22;5485;37.558;126.950;2023-03-23T10:56:26;16.80;1.00
10864;DHT22;5485;37.558;126.950;2023-03-23T10:58:54;16.70;1.00
10864;DHT22;5485;37.558;126.950;2023-03-23T11:01:30;16.60;1.00
10864;DHT22;5485;37.558;126.950;2023-03-23T11:03:58;16.60;1.00
10864;DHT22;5485;37.558;126.950;2023-03-23T11:06:32;16.50;1.00
10864;DHT22;5485;37.558;126.950;2023-03-23T11:09:17;16.40;1.00
10864;DHT22;5485;37.558;126.950;2023-03-23T11:11:55;16.40;1.00
10864;DHT22;5485;37.558;126.950;2023-03-23T11:14:32;16.30;1.00
10864;DHT22;5485;37.558;126.950;2023-03-23T11:17:03;16.20;1.00
10864;DHT22;5485;37.558;126.950;2023-03-23T11:19:35;16.10;1.00
10864;DHT22;5485;37.558;126.950;2023-03-23T11:22:13;16.00;1.00
10864;DHT22;5485;37.558;126.950;2023-03-23T11:24:45;16.00;1.00
10864;DHT22;5485;37.558;126.950;2023-03-23T11:27:14;16.00;1.00
10864;DHT22;5485;37.558;126.950;2023-03-23T11:30:11;15.90;1.00
10864;DHT22;5485;37.558;126.950;2023-03-23T11:32:45;15.90;1.00
10864;DHT22;5485;37.558;126.950;2023-03-23T11:35:31;15.80;1.00
10864;DHT22;5485;37.558;126.950;2023-03-23T11:37:59;15.80;1.00
10864;DHT22;5485;37.558;126.950;2023-03-23T11:40:29;15.70;1.00
10864;DHT22;5485;37.558;126.950;2023-03-23T11:51:41;15.40;1.00
10864;DHT22;5485;37.558;126.950;2023-03-23T11:56:41;15.30;1.00
10864;DHT22;5485;37.558;126.950;2023-03-23T11:59:29;15.30;1.00
10864;DHT22;5485;37.558;126.950;2023-03-23T12:05:17;15.20;1.00
10864;DHT22;5485;37.558;126.950;2023-03-23T12:19:39;15.00;1.00
10864;DHT22;5485;37.558;126.950;2023-03-23T12:30:55;14.80;1.00
10864;DHT22;5485;37.558;126.950;2023-03-23T12:33:50;14.80;1.00
10864;DHT22;5485;37.558;126.950;2023-03-23T12:42:47;14.70;1.00
10864;DHT22;5485;37.558;126.950;2023-03-23T12:53:11;14.50;1.00
10864;DHT22;5485;37.558;126.950;2023-03-23T12:58:36;14.40;1.00
10864;DHT22;5485;37.558;126.950;2023-03-23T13:01:11;14.40;1.00
10864;DHT22;5485;37.558;126.950;2023-03-23T13:06:27;14.30;1.00
10864;DHT22;5485;37.558;126.950;2023-03-23T13:11:39;14.20;1.00
10864;DHT22;5485;37.558;126.950;2023-03-23T13:14:31;14.10;1.00
10864;DHT22;5485;37.558;126.950;2023-03-23T13:23:02;14.00;1.00
10864;DHT22;5485;37.558;126.950;2023-03-23T13:28:02;13.90;1.00
10864;DHT22;5485;37.558;126.950;2023-03-23T13:30:30;13.90;1.00
10864;DHT22;5485;37.558;126.950;2023-03-23T13:33:05;13.90;1.00
10864;DHT22;5485;37.558;126.950;2023-03-23T13:35:35;13.80;1.00
10864;DHT22;5485;37.558;126.950;2023-03-23T13:40:46;13.70;1.00
10864;DHT22;5485;37.558;126.950;2023-03-23T13:43:24;13.60;1.00
10864;DHT22;5485;37.558;126.950;2023-03-23T13:45:52;13.60;1.00
10864;DHT22;5485;37.558;126.950;2023-03-23T13:48:24;13.50;1.00
10864;DHT22;5485;37.558;126.950;2023-03-23T13:50:57;13.50;1.00
10864;DHT22;5485;37.558;126.950;2023-03-23T13:53:46;13.50;1.00
10864;DHT22;5485;37.558;126.950;2023-03-23T13:58:48;13.40;1.00
10864;DHT22;5485;37.558;126.950;2023-03-23T14:01:18;13.40;1.00
10864;DHT22;5485;37.558;126.950;2023-03-23T14:03:53;13.40;1.00
10864;DHT22;5485;37.558;126.950;2023-03-23T14:06:22;13.40;1.00
10864;DHT22;5485;37.558;126.950;2023-03-23T14:08:53;13.30;1.00
10864;DHT22;5485;37.558;126.950;2023-03-23T14:11:24;13.30;1.00
10864;DHT22;5485;37.558;126.950;2023-03-23T14:14:07;13.20;1.00
10864;DHT22;5485;37.558;126.950;2023-03-23T14:16:44;13.20;1.00
10864;DHT22;5485;37.558;126.950;2023-03-23T14:19:21;13.10;1.00
10864;DHT22;5485;37.558;126.950;2023-03-23T14:21:57;13.10;1.00
10864;DHT22;5485;37.558;126.950;2023-03-23T14:24:30;13.00;1.00
10864;DHT22;5485;37.558;126.950;2023-03-23T14:27:15;12.90;1.00
10864;DHT22;5485;37.558;126.950;2023-03-23T14:29:43;12.80;1.00
10864;DHT22;5485;37.558;126.950;2023-03-23T14:32:18;12.80;1.00
10864;DHT22;5485;37.558;126.950;2023-03-23T14:34:52;12.80;1.00
10864;DHT22;5485;37.558;126.950;2023-03-23T14:37:21;12.70;1.00
10864;DHT22;5485;37.558;126.950;2023-03-23T14:39:51;12.60;1.00
10864;DHT22;5485;37.558;126.950;2023-03-23T14:42:24;12.60;1.00
10864;DHT22;5485;37.558;126.950;2023-03-23T14:44:52;12.50;1.00
10864;DHT22;5485;37.558;126.950;2023-03-23T14:47:30;12.50;1.00
10864;DHT22;5485;37.558;126.950;2023-03-23T14:50:00;12.40;1.00
10864;DHT22;5485;37.558;126.950;2023-03-23T14:52:32;12.40;1.00
10864;DHT22;5485;37.558;126.950;2023-03-23T14:55:14;12.40;1.00
10864;DHT22;5485;37.558;126.950;2023-03-23T14:57:42;12.30;1.00
10864;DHT22;5485;37.558;126.950;2023-03-23T15:00:22;12.30;1.00
10864;DHT22;5485;37.558;126.950;2023-03-23T15:02:54;12.20;1.00
10864;DHT22;5485;37.558;126.950;2023-03-23T15:05:30;12.20;1.00
10864;DHT22;5485;37.558;126.950;2023-03-23T15:08:03;12.20;1.00
10864;DHT22;5485;37.558;126.950;2023-03-23T15:10:31;12.10;1.00
10864;DHT22;5485;37.558;126.950;2023-03-23T15:13:01;12.20;1.00
10864;DHT22;5485;37.558;126.950;2023-03-23T15:15:34;12.10;1.00
10864;DHT22;5485;37.558;126.950;2023-03-23T15:18:02;12.00;1.00
10864;DHT22;5485;37.558;126.950;2023-03-23T15:20:49;12.00;1.00
10864;DHT22;5485;37.558;126.950;2023-03-23T15:23:22;11.90;1.00
10864;DHT22;5485;37.558;126.950;2023-03-23T15:25:55;11.90;1.00
10864;DHT22;5485;37.558;126.950;2023-03-23T15:28:33;11.80;1.00
10864;DHT22;5485;37.558;126.950;2023-03-23T15:31:05;11.80;1.00
10864;DHT22;5485;37.558;126.950;2023-03-23T15:33:39;11.70;1.00
10864;DHT22;5485;37.558;126.950;2023-03-23T15:36:17;11.70;1.00
10864;DHT22;5485;37.558;126.950;2023-03-23T15:38:45;11.60;1.00
10864;DHT22;5485;37.558;126.950;2023-03-23T15:41:27;11.60;1.00
10864;DHT22;5485;37.558;126.950;2023-03-23T15:44:08;11.50;1.00
10864;DHT22;5485;37.558;126.950;2023-03-23T15:46:35;11.50;1.00
10864;DHT22;5485;37.558;126.950;2023-03-23T15:49:10;11.50;1.00
10864;DHT22;5485;37.558;126.950;2023-03-23T15:51:40;11.40;1.00
10864;DHT22;5485;37.558;126.950;2023-03-23T15:54:12;11.40;1.00
10864;DHT22;5485;37.558;126.950;2023-03-23T15:56:40;11.40;1.00
10864;DHT22;5485;37.558;126.950;2023-03-23T15:59:08;11.40;1.00
10864;DHT22;5485;37.558;126.950;2023-03-23T16:01:36;11.40;1.00
10864;DHT22;5485;37.558;126.950;2023-03-23T16:04:08;11.30;1.00
10864;DHT22;5485;37.558;126.950;2023-03-23T16:06:36;11.30;1.00
10864;DHT22;5485;37.558;126.950;2023-03-23T16:09:05;11.30;1.00
10864;DHT22;5485;37.558;126.950;2023-03-23T16:11:32;11.30;1.00
10864;DHT22;5485;37.558;126.950;2023-03-23T16:14:00;11.30;1.00
10864;DHT22;5485;37.558;126.950;2023-03-23T16:16:45;11.30;1.00
10864;DHT22;5485;37.558;126.950;2023-03-23T16:19:13;11.20;1.00
10864;DHT22;5485;37.558;126.950;2023-03-23T16:21:41;11.20;1.00
10864;DHT22;5485;37.558;126.950;2023-03-23T16:24:14;11.20;1.00
10864;DHT22;5485;37.558;126.950;2023-03-23T16:26:41;11.20;1.00
10864;DHT22;5485;37.558;126.950;2023-03-23T16:29:14;11.20;1.00
10864;DHT22;5485;37.558;126.950;2023-03-23T16:31:44;11.10;1.00
10864;DHT22;5485;37.558;126.950;2023-03-23T16:34:11;11.10;1.00
10864;DHT22;5485;37.558;126.950;2023-03-23T16:36:37;11.00;1.00
10864;DHT22;5485;37.558;126.950;2023-03-23T16:39:04;11.00;1.00
10864;DHT22;5485;37.558;126.950;2023-03-23T16:41:31;11.00;1.00
10864;DHT22;5485;37.558;126.950;2023-03-23T16:43:58;11.00;1.00
10864;DHT22;5485;37.558;126.950;2023-03-23T16:46:25;10.90;1.00
10864;DHT22;5485;37.558;126.950;2023-03-23T16:48:52;10.90;1.00
10864;DHT22;5485;37.558;126.950;2023-03-23T16:51:19;10.90;1.00
10864;DHT22;5485;37.558;126.950;2023-03-23T16:53:46;10.80;1.00
10864;DHT22;5485;37.558;126.950;2023-03-23T16:56:13;10.80;1.00
10864;DHT22;5485;37.558;126.950;2023-03-23T16:58:40;10.80;1.00
10864;DHT22;5485;37.558;126.950;2023-03-23T17:01:07;10.70;1.00
10864;DHT22;5485;37.558;126.950;2023-03-23T17:03:34;10.60;1.00
10864;DHT22;5485;37.558;126.950;2023-03-23T17:06:01;10.60;1.00
10864;DHT22;5485;37.558;126.950;2023-03-23T17:08:29;10.50;1.00
10864;DHT22;5485;37.558;126.950;2023-03-23T17:10:57;10.50;1.00
10864;DHT22;5485;37.558;126.950;2023-03-23T17:13:23;10.40;1.00
10864;DHT22;5485;37.558;126.950;2023-03-23T17:15:54;10.40;1.00
10864;DHT22;5485;37.558;126.950;2023-03-23T17:18:23;10.40;1.00
10864;DHT22;5485;37.558;126.950;2023-03-23T17:20:52;10.30;1.00
10864;DHT22;5485;37.558;126.950;2023-03-23T17:23:19;10.30;1.00
10864;DHT22;5485;37.558;126.950;2023-03-23T17:25:47;10.30;1.00
10864;DHT22;5485;37.558;126.950;2023-03-23T17:28:18;10.30;1.00
10864;DHT22;5485;37.558;126.950;2023-03-23T17:30:45;10.30;1.00
10864;DHT22;5485;37.558;126.950;2023-03-23T17:33:12;10.20;1.00
10864;DHT22;5485;37.558;126.950;2023-03-23T17:35:40;10.20;1.00
10864;DHT22;5485;37.558;126.950;2023-03-23T17:38:07;10.20;1.00
10864;DHT22;5485;37.558;126.950;2023-03-23T17:40:33;10.20;1.00
10864;DHT22;5485;37.558;126.950;2023-03-23T17:43:00;10.10;1.00
10864;DHT22;5485;37.558;126.950;2023-03-23T17:45:27;10.10;1.00